Southern Utah University
, Cedar City
Last Weather Update:1/30/2012 11:00:00 PM
Date
ETo
ETc
Rain
Irrigation
Req
Temp
Max
Temp
Min
Temp
Avg
Avg RH
Avg Wind
Avg Solar
inches
inches
incehs
inches
F
F
F
%
%
watts/m2
12/1/2011 0.02" 0.00" 0.00" 0.00" 30.9° 22.5° 27.0° 87.2% 8.3 MPH 46.7w/m2
12/2/2011 0.03" 0.00" 0.15" -0.12" 37.3° 22.6° 28.1° 76.8% 2.5 MPH 90.3w/m2
12/3/2011 0.02" 0.00" 0.01" -0.01" 26.1° 12.2° 21.9° 85.7% 6.4 MPH 92.8w/m2
12/4/2011 0.03" 0.00" 0.02" -0.02" 32.8° 6.4° 20.4° 78.9% 2.2 MPH 112.6w/m2
12/5/2011 0.02" 0.00" 0.06" -0.05" 24.4° 4.0° 16.9° 82.4% 3.8 MPH 71.7w/m2
12/6/2011 0.03" 0.00" 0.01" -0.01" 30.1° 2.5° 13.7° 68.7% 1.9 MPH 117.2w/m2
12/7/2011 0.04" 0.00" 0.00" 0.00" 37.2° 11.7° 21.9° 69.6% 2.0 MPH 122.2w/m2
12/8/2011 0.03" 0.00" 0.00" 0.00" 39.8° 17.2° 24.6° 72.9% 1.5 MPH 89.6w/m2
12/9/2011 0.04" 0.00" 0.00" 0.00" 44.2° 13.2° 25.8° 66.2% 2.3 MPH 122.0w/m2
12/10/2011 0.04" 0.00" 0.00" 0.00" 44.4° 18.8° 28.8° 62.2% 2.6 MPH 121.5w/m2
12/11/2011 0.05" 0.00" 0.00" 0.00" 44.6° 22.1° 32.5° 51.9% 3.9 MPH 103.4w/m2
12/12/2011 0.03" 0.00" 0.00" 0.00" 40.3° 28.3° 34.0° 69.8% 2.8 MPH 71.4w/m2
12/13/2011 0.02" 0.00" 0.13" -0.10" 37.5° 22.4° 30.5° 89.0% 0.7 MPH 59.8w/m2
12/14/2011 0.02" 0.00" 0.00" 0.00" 34.1° 19.0° 26.6° 86.8% 1.1 MPH 66.4w/m2
12/15/2011 0.03" 0.00" 0.00" 0.00" 35.3° 14.3° 24.0° 78.9% 2.3 MPH 97.9w/m2
12/16/2011 0.01" 0.00" 0.00" 0.00" 27.5° 20.1° 22.8° 87.4% 3.8 MPH 45.8w/m2
12/17/2011 0.02" 0.00" 0.00" 0.00" 34.7° 15.9° 22.6° 83.3% 1.1 MPH 102.4w/m2
12/18/2011 0.02" 0.00" 0.04" -0.03" 37.8° 16.2° 27.2° 83.5% 1.8 MPH 87.6w/m2
12/19/2011 0.02" 0.00" 0.01" -0.01" 36.1° 20.8° 26.0° 84.9% 3.0 MPH 88.0w/m2
12/20/2011 0.02" 0.00" 0.00" 0.00" 29.6° 17.1° 23.0° 83.0% 3.7 MPH 58.0w/m2
12/21/2011 0.04" 0.00" 0.00" 0.00" 41.7° 15.9° 24.4° 73.0% 3.1 MPH 115.1w/m2
12/22/2011 0.02" 0.00" 0.00" 0.00" 25.9° 12.4° 18.9° 77.8% 4.1 MPH 61.4w/m2
12/23/2011 0.04" 0.00" 0.00" 0.00" 36.2° 6.3° 19.1° 63.0% 1.5 MPH 119.4w/m2
12/24/2011 0.04" 0.00" 0.00" 0.00" 42.3° 12.7° 22.7° 53.6% 2.1 MPH 119.2w/m2
12/25/2011 0.04" 0.00" 0.00" 0.00" 46.8° 15.1° 27.1° 51.0% 2.5 MPH 117.9w/m2
12/26/2011 0.05" 0.00" 0.00" 0.00" 55.0° 22.1° 33.8° 40.6% 2.4 MPH 119.6w/m2
12/27/2011 0.06" 0.00" 0.00" 0.00" 55.7° 23.4° 35.7° 41.3% 2.7 MPH 119.0w/m2
12/28/2011 0.06" 0.00" 0.00" 0.00" 56.8° 24.6° 37.6° 44.8% 2.9 MPH 110.6w/m2
12/29/2011 0.06" 0.00" 0.00" 0.00" 61.9° 35.7° 45.7° 56.4% 2.8 MPH 108.0w/m2
12/30/2011 0.08" 0.00" 0.00" 0.00" 60.5° 34.8° 47.0° 48.1% 5.1 MPH 106.4w/m2
12/31/2011 0.05" 0.00" 0.00" 0.00" 50.9° 25.0° 38.5° 43.6% 3.9 MPH 118.7w/m2
Totals: 1.08" 0.00" 0.43" -0.34" 61.9° 2.5° 27.4° 69.1% 2.9 MPH 96.2w/m2